sensor_id;sensor_type;location;lat;lon;timestamp;P1;durP1;ratioP1;P2;durP2;ratioP2
22648;SDS011;11491;41.942;24.220;2024-03-06T00:02:25;14.02;;;8.38;;
22648;SDS011;11491;41.942;24.220;2024-03-06T00:04:53;17.38;;;8.75;;
22648;SDS011;11491;41.942;24.220;2024-03-06T00:07:20;19.65;;;9.60;;
22648;SDS011;11491;41.942;24.220;2024-03-06T00:09:47;15.13;;;8.48;;
22648;SDS011;11491;41.942;24.220;2024-03-06T00:12:14;15.77;;;8.40;;
22648;SDS011;11491;41.942;24.220;2024-03-06T00:14:40;17.17;;;9.13;;
22648;SDS011;11491;41.942;24.220;2024-03-06T00:17:07;14.30;;;8.70;;
22648;SDS011;11491;41.942;24.220;2024-03-06T00:19:34;14.43;;;7.88;;
22648;SDS011;11491;41.942;24.220;2024-03-06T00:22:02;13.70;;;7.30;;
22648;SDS011;11491;41.942;24.220;2024-03-06T00:24:29;12.30;;;7.47;;
22648;SDS011;11491;41.942;24.220;2024-03-06T00:26:57;15.02;;;8.50;;
22648;SDS011;11491;41.942;24.220;2024-03-06T00:29:24;15.25;;;9.00;;
22648;SDS011;11491;41.942;24.220;2024-03-06T00:31:51;13.38;;;7.95;;
22648;SDS011;11491;41.942;24.220;2024-03-06T00:34:17;14.18;;;9.18;;
22648;SDS011;11491;41.942;24.220;2024-03-06T00:36:44;12.55;;;8.07;;
22648;SDS011;11491;41.942;24.220;2024-03-06T00:39:12;13.85;;;8.48;;
22648;SDS011;11491;41.942;24.220;2024-03-06T00:41:39;13.20;;;7.30;;
22648;SDS011;11491;41.942;24.220;2024-03-06T00:44:07;15.50;;;9.07;;
22648;SDS011;11491;41.942;24.220;2024-03-06T00:46:33;12.50;;;7.88;;
22648;SDS011;11491;41.942;24.220;2024-03-06T00:49:00;13.75;;;8.48;;
22648;SDS011;11491;41.942;24.220;2024-03-06T00:51:27;13.95;;;8.15;;
22648;SDS011;11491;41.942;24.220;2024-03-06T00:53:54;9.20;;;5.95;;
22648;SDS011;11491;41.942;24.220;2024-03-06T00:56:23;10.75;;;5.97;;
22648;SDS011;11491;41.942;24.220;2024-03-06T00:58:50;9.60;;;6.43;;
22648;SDS011;11491;41.942;24.220;2024-03-06T01:01:17;10.45;;;6.88;;
22648;SDS011;11491;41.942;24.220;2024-03-06T01:03:44;9.45;;;6.30;;
22648;SDS011;11491;41.942;24.220;2024-03-06T01:06:10;8.68;;;6.18;;
22648;SDS011;11491;41.942;24.220;2024-03-06T01:08:37;8.38;;;5.95;;
22648;SDS011;11491;41.942;24.220;2024-03-06T01:11:04;9.00;;;6.38;;
22648;SDS011;11491;41.942;24.220;2024-03-06T01:13:33;8.75;;;6.70;;
22648;SDS011;11491;41.942;24.220;2024-03-06T01:16:00;9.20;;;6.63;;
22648;SDS011;11491;41.942;24.220;2024-03-06T01:18:27;10.93;;;7.70;;
22648;SDS011;11491;41.942;24.220;2024-03-06T01:20:54;12.27;;;7.38;;
22648;SDS011;11491;41.942;24.220;2024-03-06T01:23:21;11.02;;;7.10;;
22648;SDS011;11491;41.942;24.220;2024-03-06T01:25:48;9.77;;;6.95;;
22648;SDS011;11491;41.942;24.220;2024-03-06T01:28:14;8.45;;;6.53;;
22648;SDS011;11491;41.942;24.220;2024-03-06T01:30:42;8.90;;;6.68;;
22648;SDS011;11491;41.942;24.220;2024-03-06T01:33:09;10.48;;;6.97;;
22648;SDS011;11491;41.942;24.220;2024-03-06T01:35:36;12.68;;;7.22;;
22648;SDS011;11491;41.942;24.220;2024-03-06T01:38:03;13.80;;;8.10;;
22648;SDS011;11491;41.942;24.220;2024-03-06T01:40:30;12.13;;;7.45;;
22648;SDS011;11491;41.942;24.220;2024-03-06T01:42:57;13.00;;;8.02;;
22648;SDS011;11491;41.942;24.220;2024-03-06T01:45:24;13.77;;;8.15;;
22648;SDS011;11491;41.942;24.220;2024-03-06T01:47:52;14.65;;;7.75;;
22648;SDS011;11491;41.942;24.220;2024-03-06T01:50:19;9.80;;;6.28;;
22648;SDS011;11491;41.942;24.220;2024-03-06T01:52:45;8.73;;;5.68;;
22648;SDS011;11491;41.942;24.220;2024-03-06T01:55:13;9.65;;;6.72;;
22648;SDS011;11491;41.942;24.220;2024-03-06T01:57:41;10.07;;;6.60;;
22648;SDS011;11491;41.942;24.220;2024-03-06T02:00:09;9.07;;;6.20;;
22648;SDS011;11491;41.942;24.220;2024-03-06T02:02:39;10.10;;;6.18;;
22648;SDS011;11491;41.942;24.220;2024-03-06T02:05:09;8.45;;;5.47;;
22648;SDS011;11491;41.942;24.220;2024-03-06T02:07:36;8.07;;;5.50;;
22648;SDS011;11491;41.942;24.220;2024-03-06T02:10:05;8.35;;;5.70;;
22648;SDS011;11491;41.942;24.220;2024-03-06T02:12:35;8.57;;;5.70;;
22648;SDS011;11491;41.942;24.220;2024-03-06T02:15:02;8.40;;;5.80;;
22648;SDS011;11491;41.942;24.220;2024-03-06T02:17:29;8.48;;;5.15;;
22648;SDS011;11491;41.942;24.220;2024-03-06T02:19:55;6.78;;;5.00;;
22648;SDS011;11491;41.942;24.220;2024-03-06T02:22:25;7.70;;;5.60;;
22648;SDS011;11491;41.942;24.220;2024-03-06T02:24:52;9.27;;;5.93;;
22648;SDS011;11491;41.942;24.220;2024-03-06T02:27:19;9.23;;;5.68;;
22648;SDS011;11491;41.942;24.220;2024-03-06T02:29:45;8.35;;;5.68;;
22648;SDS011;11491;41.942;24.220;2024-03-06T02:32:12;8.50;;;5.55;;
22648;SDS011;11491;41.942;24.220;2024-03-06T02:34:40;10.77;;;5.82;;
22648;SDS011;11491;41.942;24.220;2024-03-06T02:37:06;6.75;;;4.93;;
22648;SDS011;11491;41.942;24.220;2024-03-06T02:39:35;7.88;;;5.28;;
22648;SDS011;11491;41.942;24.220;2024-03-06T02:42:01;7.03;;;4.72;;
22648;SDS011;11491;41.942;24.220;2024-03-06T02:44:29;7.75;;;4.63;;
22648;SDS011;11491;41.942;24.220;2024-03-06T02:46:56;6.35;;;4.80;;
22648;SDS011;11491;41.942;24.220;2024-03-06T02:49:22;5.38;;;4.32;;
22648;SDS011;11491;41.942;24.220;2024-03-06T02:51:49;5.47;;;4.10;;
22648;SDS011;11491;41.942;24.220;2024-03-06T02:54:16;5.88;;;4.25;;
22648;SDS011;11491;41.942;24.220;2024-03-06T02:56:45;6.88;;;4.18;;
22648;SDS011;11491;41.942;24.220;2024-03-06T02:59:12;6.55;;;4.53;;
22648;SDS011;11491;41.942;24.220;2024-03-06T03:01:39;6.88;;;4.53;;
22648;SDS011;11491;41.942;24.220;2024-03-06T03:04:05;7.88;;;4.53;;
22648;SDS011;11491;41.942;24.220;2024-03-06T03:06:32;9.15;;;4.40;;
22648;SDS011;11491;41.942;24.220;2024-03-06T03:08:59;6.85;;;4.20;;
22648;SDS011;11491;41.942;24.220;2024-03-06T03:11:26;8.85;;;4.40;;
22648;SDS011;11491;41.942;24.220;2024-03-06T03:13:54;5.70;;;4.13;;
22648;SDS011;11491;41.942;24.220;2024-03-06T03:16:22;5.75;;;3.80;;
22648;SDS011;11491;41.942;24.220;2024-03-06T03:18:48;6.93;;;3.70;;
22648;SDS011;11491;41.942;24.220;2024-03-06T03:21:14;6.72;;;4.13;;
22648;SDS011;11491;41.942;24.220;2024-03-06T03:23:41;5.30;;;3.60;;
22648;SDS011;11491;41.942;24.220;2024-03-06T03:26:08;8.18;;;4.90;;
22648;SDS011;11491;41.942;24.220;2024-03-06T03:28:37;6.53;;;4.15;;
22648;SDS011;11491;41.942;24.220;2024-03-06T03:31:06;6.22;;;4.22;;
22648;SDS011;11491;41.942;24.220;2024-03-06T03:33:34;7.53;;;4.90;;
22648;SDS011;11491;41.942;24.220;2024-03-06T03:36:03;6.63;;;4.57;;
22648;SDS011;11491;41.942;24.220;2024-03-06T03:38:31;10.25;;;4.47;;
22648;SDS011;11491;41.942;24.220;2024-03-06T03:40:57;7.32;;;4.90;;
22648;SDS011;11491;41.942;24.220;2024-03-06T03:43:24;11.27;;;5.55;;
22648;SDS011;11491;41.942;24.220;2024-03-06T03:45:51;10.15;;;6.00;;
22648;SDS011;11491;41.942;24.220;2024-03-06T03:48:19;10.82;;;6.57;;
22648;SDS011;11491;41.942;24.220;2024-03-06T03:50:45;25.35;;;17.10;;
22648;SDS011;11491;41.942;24.220;2024-03-06T03:53:12;29.88;;;17.80;;
22648;SDS011;11491;41.942;24.220;2024-03-06T03:55:39;23.00;;;15.00;;
22648;SDS011;11491;41.942;24.220;2024-03-06T03:58:06;14.32;;;7.57;;
22648;SDS011;11491;41.942;24.220;2024-03-06T04:00:33;11.98;;;7.45;;
22648;SDS011;11491;41.942;24.220;2024-03-06T04:02:59;17.90;;;10.30;;
22648;SDS011;11491;41.942;24.220;2024-03-06T04:05:28;15.68;;;9.52;;
22648;SDS011;11491;41.942;24.220;2024-03-06T04:07:56;18.52;;;10.48;;
22648;SDS011;11491;41.942;24.220;2024-03-06T04:10:23;16.33;;;10.63;;
22648;SDS011;11491;41.942;24.220;2024-03-06T04:12:50;15.27;;;9.30;;
22648;SDS011;11491;41.942;24.220;2024-03-06T04:15:16;16.13;;;9.38;;
22648;SDS011;11491;41.942;24.220;2024-03-06T04:17:44;18.00;;;10.20;;
22648;SDS011;11491;41.942;24.220;2024-03-06T04:20:10;17.30;;;11.07;;
22648;SDS011;11491;41.942;24.220;2024-03-06T04:22:39;18.55;;;11.18;;
22648;SDS011;11491;41.942;24.220;2024-03-06T04:25:06;20.98;;;12.30;;
22648;SDS011;11491;41.942;24.220;2024-03-06T04:27:34;19.77;;;11.25;;
22648;SDS011;11491;41.942;24.220;2024-03-06T04:30:01;14.65;;;8.57;;
22648;SDS011;11491;41.942;24.220;2024-03-06T04:32:29;21.50;;;12.73;;
22648;SDS011;11491;41.942;24.220;2024-03-06T04:34:56;31.33;;;20.38;;
22648;SDS011;11491;41.942;24.220;2024-03-06T04:37:22;18.38;;;11.95;;
22648;SDS011;11491;41.942;24.220;2024-03-06T04:39:53;16.55;;;10.05;;
22648;SDS011;11491;41.942;24.220;2024-03-06T04:42:19;14.95;;;9.80;;
22648;SDS011;11491;41.942;24.220;2024-03-06T04:44:46;16.95;;;10.77;;
22648;SDS011;11491;41.942;24.220;2024-03-06T04:47:13;16.10;;;9.80;;
22648;SDS011;11491;41.942;24.220;2024-03-06T04:49:39;31.08;;;14.35;;
22648;SDS011;11491;41.942;24.220;2024-03-06T04:52:07;15.85;;;9.02;;
22648;SDS011;11491;41.942;24.220;2024-03-06T04:54:34;23.30;;;11.93;;
22648;SDS011;11491;41.942;24.220;2024-03-06T04:57:02;23.92;;;14.93;;
22648;SDS011;11491;41.942;24.220;2024-03-06T04:59:29;41.38;;;24.00;;
22648;SDS011;11491;41.942;24.220;2024-03-06T05:01:56;24.25;;;13.50;;
22648;SDS011;11491;41.942;24.220;2024-03-06T05:04:23;137.82;;;60.45;;
22648;SDS011;11491;41.942;24.220;2024-03-06T05:06:50;183.52;;;69.90;;
22648;SDS011;11491;41.942;24.220;2024-03-06T05:09:16;301.50;;;109.82;;
22648;SDS011;11491;41.942;24.220;2024-03-06T05:11:43;222.77;;;84.88;;
22648;SDS011;11491;41.942;24.220;2024-03-06T05:14:11;160.18;;;67.82;;
22648;SDS011;11491;41.942;24.220;2024-03-06T05:16:38;96.13;;;47.30;;
22648;SDS011;11491;41.942;24.220;2024-03-06T05:19:04;75.13;;;34.55;;
22648;SDS011;11491;41.942;24.220;2024-03-06T05:21:32;145.88;;;90.20;;
22648;SDS011;11491;41.942;24.220;2024-03-06T05:24:00;107.60;;;56.47;;
22648;SDS011;11491;41.942;24.220;2024-03-06T05:26:27;68.90;;;35.22;;
22648;SDS011;11491;41.942;24.220;2024-03-06T05:28:54;40.85;;;20.70;;
22648;SDS011;11491;41.942;24.220;2024-03-06T05:31:22;50.97;;;24.63;;
22648;SDS011;11491;41.942;24.220;2024-03-06T05:33:50;44.67;;;23.90;;
22648;SDS011;11491;41.942;24.220;2024-03-06T05:36:17;49.90;;;21.75;;
22648;SDS011;11491;41.942;24.220;2024-03-06T05:38:44;90.30;;;29.45;;
22648;SDS011;11491;41.942;24.220;2024-03-06T05:41:11;46.90;;;12.52;;
22648;SDS011;11491;41.942;24.220;2024-03-06T05:43:38;32.80;;;10.65;;
22648;SDS011;11491;41.942;24.220;2024-03-06T05:46:06;42.15;;;10.77;;
22648;SDS011;11491;41.942;24.220;2024-03-06T05:48:34;63.08;;;29.63;;
22648;SDS011;11491;41.942;24.220;2024-03-06T05:51:01;63.78;;;29.58;;
22648;SDS011;11491;41.942;24.220;2024-03-06T05:53:28;51.83;;;22.65;;
22648;SDS011;11491;41.942;24.220;2024-03-06T05:55:55;45.20;;;16.30;;
22648;SDS011;11491;41.942;24.220;2024-03-06T05:58:22;20.38;;;10.20;;
22648;SDS011;11491;41.942;24.220;2024-03-06T06:00:49;32.22;;;9.85;;
22648;SDS011;11491;41.942;24.220;2024-03-06T06:03:15;27.92;;;12.70;;
22648;SDS011;11491;41.942;24.220;2024-03-06T06:05:43;25.42;;;12.90;;
22648;SDS011;11491;41.942;24.220;2024-03-06T06:08:10;24.00;;;13.07;;
22648;SDS011;11491;41.942;24.220;2024-03-06T06:10:37;26.50;;;15.27;;
22648;SDS011;11491;41.942;24.220;2024-03-06T06:13:04;26.33;;;17.02;;
22648;SDS011;11491;41.942;24.220;2024-03-06T06:15:31;36.55;;;19.75;;
22648;SDS011;11491;41.942;24.220;2024-03-06T06:17:57;35.38;;;23.42;;
22648;SDS011;11491;41.942;24.220;2024-03-06T06:20:24;35.72;;;22.23;;
22648;SDS011;11491;41.942;24.220;2024-03-06T06:22:53;32.83;;;20.42;;
22648;SDS011;11491;41.942;24.220;2024-03-06T06:25:19;26.95;;;16.52;;
22648;SDS011;11491;41.942;24.220;2024-03-06T06:27:46;18.38;;;12.77;;
22648;SDS011;11491;41.942;24.220;2024-03-06T06:30:14;20.60;;;11.93;;
22648;SDS011;11491;41.942;24.220;2024-03-06T06:32:41;25.58;;;11.35;;
22648;SDS011;11491;41.942;24.220;2024-03-06T06:35:09;28.65;;;16.20;;
22648;SDS011;11491;41.942;24.220;2024-03-06T06:37:38;32.58;;;20.70;;
22648;SDS011;11491;41.942;24.220;2024-03-06T06:40:07;23.05;;;14.85;;
22648;SDS011;11491;41.942;24.220;2024-03-06T06:42:36;33.53;;;20.50;;
22648;SDS011;11491;41.942;24.220;2024-03-06T06:45:04;35.45;;;18.23;;
22648;SDS011;11491;41.942;24.220;2024-03-06T06:47:32;33.17;;;19.55;;
22648;SDS011;11491;41.942;24.220;2024-03-06T06:49:59;52.60;;;29.15;;
22648;SDS011;11491;41.942;24.220;2024-03-06T06:52:30;37.40;;;20.60;;
22648;SDS011;11491;41.942;24.220;2024-03-06T06:54:58;33.10;;;19.02;;
22648;SDS011;11491;41.942;24.220;2024-03-06T06:57:26;28.75;;;17.15;;
22648;SDS011;11491;41.942;24.220;2024-03-06T06:59:53;26.25;;;15.13;;
22648;SDS011;11491;41.942;24.220;2024-03-06T07:02:20;28.05;;;17.00;;
22648;SDS011;11491;41.942;24.220;2024-03-06T07:04:47;24.55;;;13.63;;
22648;SDS011;11491;41.942;24.220;2024-03-06T07:07:13;21.27;;;12.38;;
22648;SDS011;11491;41.942;24.220;2024-03-06T07:09:40;43.10;;;33.50;;
22648;SDS011;11491;41.942;24.220;2024-03-06T07:12:07;21.30;;;14.00;;
22648;SDS011;11491;41.942;24.220;2024-03-06T07:14:35;23.20;;;13.25;;
22648;SDS011;11491;41.942;24.220;2024-03-06T07:17:02;23.58;;;14.90;;
22648;SDS011;11491;41.942;24.220;2024-03-06T07:19:29;23.83;;;16.23;;
22648;SDS011;11491;41.942;24.220;2024-03-06T07:21:56;19.83;;;12.70;;
22648;SDS011;11491;41.942;24.220;2024-03-06T07:24:22;21.58;;;12.63;;
22648;SDS011;11491;41.942;24.220;2024-03-06T07:26:49;22.00;;;14.35;;
22648;SDS011;11491;41.942;24.220;2024-03-06T07:29:16;18.35;;;12.30;;
22648;SDS011;11491;41.942;24.220;2024-03-06T07:31:44;20.70;;;13.20;;
22648;SDS011;11491;41.942;24.220;2024-03-06T07:34:11;22.30;;;14.10;;
22648;SDS011;11491;41.942;24.220;2024-03-06T07:36:38;21.13;;;14.18;;
22648;SDS011;11491;41.942;24.220;2024-03-06T07:39:05;18.02;;;13.45;;
22648;SDS011;11491;41.942;24.220;2024-03-06T07:41:32;20.08;;;13.63;;
22648;SDS011;11491;41.942;24.220;2024-03-06T07:43:59;32.45;;;22.38;;
22648;SDS011;11491;41.942;24.220;2024-03-06T07:46:26;20.65;;;13.80;;
22648;SDS011;11491;41.942;24.220;2024-03-06T07:48:54;18.95;;;12.45;;
22648;SDS011;11491;41.942;24.220;2024-03-06T07:51:21;20.08;;;13.65;;
22648;SDS011;11491;41.942;24.220;2024-03-06T07:53:47;21.65;;;13.55;;
22648;SDS011;11491;41.942;24.220;2024-03-06T07:56:15;18.85;;;13.77;;
22648;SDS011;11491;41.942;24.220;2024-03-06T07:58:42;20.08;;;12.63;;
22648;SDS011;11491;41.942;24.220;2024-03-06T08:01:09;17.17;;;12.15;;
22648;SDS011;11491;41.942;24.220;2024-03-06T08:03:38;20.02;;;13.55;;
22648;SDS011;11491;41.942;24.220;2024-03-06T08:06:07;22.88;;;17.15;;
22648;SDS011;11491;41.942;24.220;2024-03-06T08:08:34;18.10;;;12.75;;
22648;SDS011;11491;41.942;24.220;2024-03-06T08:11:01;19.63;;;14.50;;
22648;SDS011;11491;41.942;24.220;2024-03-06T08:13:28;25.85;;;17.33;;
22648;SDS011;11491;41.942;24.220;2024-03-06T08:15:55;23.42;;;15.52;;
22648;SDS011;11491;41.942;24.220;2024-03-06T08:18:21;21.85;;;15.80;;
22648;SDS011;11491;41.942;24.220;2024-03-06T08:20:48;21.08;;;14.70;;
22648;SDS011;11491;41.942;24.220;2024-03-06T08:23:16;26.33;;;15.50;;
22648;SDS011;11491;41.942;24.220;2024-03-06T08:25:43;21.83;;;14.90;;
22648;SDS011;11491;41.942;24.220;2024-03-06T08:28:10;20.00;;;15.95;;
22648;SDS011;11491;41.942;24.220;2024-03-06T08:30:37;21.40;;;15.43;;
22648;SDS011;11491;41.942;24.220;2024-03-06T08:33:04;26.25;;;19.02;;
22648;SDS011;11491;41.942;24.220;2024-03-06T08:35:31;23.25;;;16.63;;
22648;SDS011;11491;41.942;24.220;2024-03-06T08:37:57;18.88;;;14.30;;
22648;SDS011;11491;41.942;24.220;2024-03-06T08:40:26;20.80;;;15.25;;
22648;SDS011;11491;41.942;24.220;2024-03-06T08:42:53;23.00;;;16.10;;
22648;SDS011;11491;41.942;24.220;2024-03-06T08:45:20;22.92;;;16.52;;
22648;SDS011;11491;41.942;24.220;2024-03-06T08:47:48;22.35;;;15.38;;
22648;SDS011;11491;41.942;24.220;2024-03-06T08:50:15;21.75;;;14.23;;
22648;SDS011;11491;41.942;24.220;2024-03-06T08:52:42;18.25;;;12.70;;
22648;SDS011;11491;41.942;24.220;2024-03-06T08:55:09;20.30;;;13.10;;
22648;SDS011;11491;41.942;24.220;2024-03-06T08:57:37;13.68;;;11.00;;
22648;SDS011;11491;41.942;24.220;2024-03-06T09:00:05;14.15;;;10.75;;
22648;SDS011;11491;41.942;24.220;2024-03-06T09:02:35;15.23;;;9.48;;
22648;SDS011;11491;41.942;24.220;2024-03-06T09:05:03;13.90;;;8.95;;
22648;SDS011;11491;41.942;24.220;2024-03-06T09:07:30;13.88;;;9.02;;
22648;SDS011;11491;41.942;24.220;2024-03-06T09:10:02;22.67;;;12.25;;
22648;SDS011;11491;41.942;24.220;2024-03-06T09:12:31;18.60;;;12.38;;
22648;SDS011;11491;41.942;24.220;2024-03-06T09:15:00;14.27;;;8.00;;
22648;SDS011;11491;41.942;24.220;2024-03-06T09:17:27;10.82;;;6.88;;
22648;SDS011;11491;41.942;24.220;2024-03-06T09:19:54;11.90;;;7.70;;
22648;SDS011;11491;41.942;24.220;2024-03-06T09:22:21;11.68;;;6.53;;
22648;SDS011;11491;41.942;24.220;2024-03-06T09:24:48;8.32;;;5.57;;
22648;SDS011;11491;41.942;24.220;2024-03-06T09:27:15;9.15;;;5.88;;
22648;SDS011;11491;41.942;24.220;2024-03-06T09:29:42;10.15;;;6.85;;
22648;SDS011;11491;41.942;24.220;2024-03-06T09:32:10;10.60;;;7.10;;
22648;SDS011;11491;41.942;24.220;2024-03-06T09:34:40;8.75;;;5.75;;
22648;SDS011;11491;41.942;24.220;2024-03-06T09:37:07;10.32;;;6.60;;
22648;SDS011;11491;41.942;24.220;2024-03-06T09:39:35;13.35;;;8.90;;
22648;SDS011;11491;41.942;24.220;2024-03-06T09:42:01;7.95;;;5.82;;
22648;SDS011;11491;41.942;24.220;2024-03-06T09:44:28;14.05;;;6.90;;
22648;SDS011;11491;41.942;24.220;2024-03-06T09:46:56;11.80;;;6.88;;
22648;SDS011;11491;41.942;24.220;2024-03-06T09:49:27;9.93;;;6.70;;
22648;SDS011;11491;41.942;24.220;2024-03-06T09:51:54;10.23;;;6.82;;
22648;SDS011;11491;41.942;24.220;2024-03-06T09:54:23;18.65;;;9.82;;
22648;SDS011;11491;41.942;24.220;2024-03-06T09:56:52;9.73;;;5.40;;
22648;SDS011;11491;41.942;24.220;2024-03-06T09:59:20;8.88;;;4.93;;
22648;SDS011;11491;41.942;24.220;2024-03-06T10:01:48;8.10;;;5.07;;
22648;SDS011;11491;41.942;24.220;2024-03-06T10:04:18;12.77;;;7.82;;
22648;SDS011;11491;41.942;24.220;2024-03-06T10:06:46;28.95;;;16.33;;
22648;SDS011;11491;41.942;24.220;2024-03-06T10:09:15;16.02;;;7.90;;
22648;SDS011;11491;41.942;24.220;2024-03-06T10:11:43;12.50;;;8.25;;
22648;SDS011;11491;41.942;24.220;2024-03-06T10:14:10;8.73;;;4.00;;
22648;SDS011;11491;41.942;24.220;2024-03-06T10:16:37;10.80;;;6.05;;
22648;SDS011;11491;41.942;24.220;2024-03-06T10:19:14;12.63;;;6.40;;
22648;SDS011;11491;41.942;24.220;2024-03-06T10:21:43;6.07;;;3.60;;
22648;SDS011;11491;41.942;24.220;2024-03-06T10:24:12;10.93;;;7.63;;
22648;SDS011;11491;41.942;24.220;2024-03-06T10:26:39;7.20;;;4.93;;
22648;SDS011;11491;41.942;24.220;2024-03-06T10:29:05;7.22;;;4.03;;
22648;SDS011;11491;41.942;24.220;2024-03-06T10:31:32;11.10;;;5.32;;
22648;SDS011;11491;41.942;24.220;2024-03-06T10:33:59;9.93;;;5.22;;
22648;SDS011;11491;41.942;24.220;2024-03-06T10:36:26;29.70;;;23.55;;
22648;SDS011;11491;41.942;24.220;2024-03-06T10:38:52;6.55;;;4.55;;
22648;SDS011;11491;41.942;24.220;2024-03-06T10:41:23;5.82;;;4.57;;
22648;SDS011;11491;41.942;24.220;2024-03-06T10:43:57;12.45;;;7.72;;
22648;SDS011;11491;41.942;24.220;2024-03-06T10:46:25;10.95;;;7.90;;
22648;SDS011;11491;41.942;24.220;2024-03-06T10:48:53;8.90;;;5.60;;
22648;SDS011;11491;41.942;24.220;2024-03-06T10:51:23;10.00;;;6.75;;
22648;SDS011;11491;41.942;24.220;2024-03-06T10:53:52;15.35;;;7.25;;
22648;SDS011;11491;41.942;24.220;2024-03-06T10:56:22;13.23;;;7.00;;
22648;SDS011;11491;41.942;24.220;2024-03-06T10:58:51;10.20;;;6.80;;
22648;SDS011;11491;41.942;24.220;2024-03-06T11:01:22;8.48;;;6.57;;
22648;SDS011;11491;41.942;24.220;2024-03-06T11:03:50;11.13;;;8.90;;
22648;SDS011;11491;41.942;24.220;2024-03-06T11:06:17;8.60;;;7.65;;
22648;SDS011;11491;41.942;24.220;2024-03-06T11:08:44;10.88;;;6.78;;
22648;SDS011;11491;41.942;24.220;2024-03-06T11:11:20;13.88;;;8.27;;
22648;SDS011;11491;41.942;24.220;2024-03-06T11:13:49;18.52;;;12.27;;
22648;SDS011;11491;41.942;24.220;2024-03-06T11:16:16;12.23;;;8.20;;
22648;SDS011;11491;41.942;24.220;2024-03-06T11:18:43;12.55;;;6.57;;
22648;SDS011;11491;41.942;24.220;2024-03-06T11:21:30;22.55;;;13.45;;
22648;SDS011;11491;41.942;24.220;2024-03-06T11:24:19;9.05;;;5.55;;
22648;SDS011;11491;41.942;24.220;2024-03-06T11:26:48;8.05;;;5.00;;
22648;SDS011;11491;41.942;24.220;2024-03-06T11:29:18;9.38;;;7.13;;
22648;SDS011;11491;41.942;24.220;2024-03-06T11:32:01;8.10;;;5.65;;
22648;SDS011;11491;41.942;24.220;2024-03-06T11:34:33;6.57;;;4.68;;
22648;SDS011;11491;41.942;24.220;2024-03-06T11:37:03;14.00;;;8.88;;
22648;SDS011;11491;41.942;24.220;2024-03-06T11:39:35;11.77;;;8.13;;
22648;SDS011;11491;41.942;24.220;2024-03-06T11:42:04;15.88;;;8.75;;
22648;SDS011;11491;41.942;24.220;2024-03-06T11:44:35;22.45;;;13.02;;
22648;SDS011;11491;41.942;24.220;2024-03-06T11:47:02;10.90;;;7.47;;
22648;SDS011;11491;41.942;24.220;2024-03-06T11:49:31;21.27;;;12.48;;
22648;SDS011;11491;41.942;24.220;2024-03-06T11:51:59;9.90;;;6.75;;
22648;SDS011;11491;41.942;24.220;2024-03-06T11:54:27;10.57;;;6.75;;
22648;SDS011;11491;41.942;24.220;2024-03-06T11:56:55;11.55;;;6.53;;
22648;SDS011;11491;41.942;24.220;2024-03-06T11:59:23;12.73;;;7.22;;
22648;SDS011;11491;41.942;24.220;2024-03-06T12:01:52;18.65;;;12.43;;
22648;SDS011;11491;41.942;24.220;2024-03-06T12:04:19;9.50;;;6.15;;
22648;SDS011;11491;41.942;24.220;2024-03-06T12:06:47;12.55;;;8.18;;
22648;SDS011;11491;41.942;24.220;2024-03-06T12:09:14;9.93;;;7.78;;
22648;SDS011;11491;41.942;24.220;2024-03-06T12:11:41;12.70;;;9.32;;
22648;SDS011;11491;41.942;24.220;2024-03-06T12:14:12;28.70;;;25.55;;
22648;SDS011;11491;41.942;24.220;2024-03-06T12:16:41;13.05;;;8.80;;
22648;SDS011;11491;41.942;24.220;2024-03-06T12:19:09;14.27;;;7.88;;
22648;SDS011;11491;41.942;24.220;2024-03-06T12:21:36;10.82;;;7.20;;
22648;SDS011;11491;41.942;24.220;2024-03-06T12:24:06;10.73;;;7.53;;
22648;SDS011;11491;41.942;24.220;2024-03-06T12:26:33;10.73;;;7.57;;
22648;SDS011;11491;41.942;24.220;2024-03-06T12:29:04;15.75;;;11.70;;
22648;SDS011;11491;41.942;24.220;2024-03-06T12:31:32;13.55;;;8.70;;
22648;SDS011;11491;41.942;24.220;2024-03-06T12:34:00;12.32;;;8.93;;
22648;SDS011;11491;41.942;24.220;2024-03-06T12:36:29;13.70;;;9.82;;
22648;SDS011;11491;41.942;24.220;2024-03-06T12:38:58;13.95;;;11.13;;
22648;SDS011;11491;41.942;24.220;2024-03-06T12:41:26;13.85;;;11.43;;
22648;SDS011;11491;41.942;24.220;2024-03-06T12:43:53;12.30;;;9.23;;
22648;SDS011;11491;41.942;24.220;2024-03-06T12:46:21;14.55;;;10.48;;
22648;SDS011;11491;41.942;24.220;2024-03-06T12:48:48;17.70;;;14.35;;
22648;SDS011;11491;41.942;24.220;2024-03-06T12:51:15;16.67;;;14.88;;
22648;SDS011;11491;41.942;24.220;2024-03-06T12:53:43;14.25;;;11.23;;
22648;SDS011;11491;41.942;24.220;2024-03-06T12:56:10;16.95;;;11.88;;
22648;SDS011;11491;41.942;24.220;2024-03-06T12:58:37;18.70;;;12.35;;
22648;SDS011;11491;41.942;24.220;2024-03-06T13:01:04;15.65;;;12.85;;
22648;SDS011;11491;41.942;24.220;2024-03-06T13:03:31;15.30;;;9.88;;
22648;SDS011;11491;41.942;24.220;2024-03-06T13:05:58;16.42;;;10.05;;
22648;SDS011;11491;41.942;24.220;2024-03-06T13:08:25;18.05;;;10.18;;
22648;SDS011;11491;41.942;24.220;2024-03-06T13:10:53;13.20;;;10.38;;
22648;SDS011;11491;41.942;24.220;2024-03-06T13:13:21;24.15;;;17.65;;
22648;SDS011;11491;41.942;24.220;2024-03-06T13:15:49;19.38;;;14.13;;
22648;SDS011;11491;41.942;24.220;2024-03-06T13:18:16;47.97;;;27.75;;
22648;SDS011;11491;41.942;24.220;2024-03-06T13:20:43;47.30;;;28.52;;
22648;SDS011;11491;41.942;24.220;2024-03-06T13:23:11;18.48;;;13.57;;
22648;SDS011;11491;41.942;24.220;2024-03-06T13:25:38;19.25;;;15.77;;
22648;SDS011;11491;41.942;24.220;2024-03-06T13:28:06;21.17;;;14.70;;
22648;SDS011;11491;41.942;24.220;2024-03-06T13:30:33;18.83;;;13.73;;
22648;SDS011;11491;41.942;24.220;2024-03-06T13:33:00;17.17;;;12.98;;
22648;SDS011;11491;41.942;24.220;2024-03-06T13:35:27;20.15;;;15.02;;
22648;SDS011;11491;41.942;24.220;2024-03-06T13:37:54;25.98;;;14.45;;
22648;SDS011;11491;41.942;24.220;2024-03-06T13:40:20;23.92;;;16.30;;
22648;SDS011;11491;41.942;24.220;2024-03-06T13:42:47;18.30;;;10.55;;
22648;SDS011;11491;41.942;24.220;2024-03-06T13:45:15;15.80;;;12.05;;
22648;SDS011;11491;41.942;24.220;2024-03-06T13:47:43;24.10;;;16.67;;
22648;SDS011;11491;41.942;24.220;2024-03-06T13:50:11;17.13;;;12.98;;
22648;SDS011;11491;41.942;24.220;2024-03-06T13:52:39;29.05;;;20.05;;
22648;SDS011;11491;41.942;24.220;2024-03-06T13:55:07;25.05;;;15.90;;
22648;SDS011;11491;41.942;24.220;2024-03-06T13:57:34;18.85;;;13.27;;
22648;SDS011;11491;41.942;24.220;2024-03-06T14:00:02;27.77;;;18.75;;
22648;SDS011;11491;41.942;24.220;2024-03-06T14:02:32;23.27;;;15.13;;
22648;SDS011;11491;41.942;24.220;2024-03-06T14:04:59;38.28;;;30.92;;
22648;SDS011;11491;41.942;24.220;2024-03-06T14:07:26;24.13;;;19.33;;
22648;SDS011;11491;41.942;24.220;2024-03-06T14:09:52;24.50;;;15.85;;
22648;SDS011;11491;41.942;24.220;2024-03-06T14:12:22;27.90;;;21.08;;
22648;SDS011;11491;41.942;24.220;2024-03-06T14:14:48;30.70;;;22.23;;
22648;SDS011;11491;41.942;24.220;2024-03-06T14:17:15;19.02;;;12.27;;
22648;SDS011;11491;41.942;24.220;2024-03-06T14:19:43;16.38;;;10.52;;
22648;SDS011;11491;41.942;24.220;2024-03-06T14:22:10;12.85;;;8.20;;